< < Back
Terminal Aerodrome Forecast


Current Version              Previous Versions:   1  2  3  4  5  6  7  8  9  

Terminal Aerodrome Forecast

312
FTUS42 KGSP 041747
TAFAVL
TAF
KAVL 041747Z 0418/0518 18009KT P6SM BKN040
     FM050200 18006KT P6SM BKN016 WS020/22035KT
     FM050700 29005KT 5SM -RA BR OVC012
     FM051100 34009KT 3SM -RA BR OVC010
     FM051400 34012KT 5SM -RA BR OVC020
     FM051700 33008KT 6SM -RA BR OVC026=

Latest METAR

898
SAUS70 KWBC 041800 RRK
MTRAVL
METAR KAVL 041754Z 20014G19KT 10SM CLR 23/11 A2991 RMK AO2 SLP111
T02330111 10239 20156 56018


USA.gov is the U.S. government's official web portal to all federal, state and local government web resources and services.